<?xml version='1.0' encoding='UTF-8'?><gpx version="1.1" creator="JPX - https://github.com/jenetics/jpx" xmlns="http://www.topografix.com/GPX/1/1"><trk><trkseg><trkpt lat="39.0774237" lon="16.2236836"><ele>484.99999999999994</ele><time>2026-04-04T09:24:57.009Z</time></trkpt><trkpt lat="39.077427" lon="16.2237805"><ele>485.0</ele><time>2026-04-04T09:24:59.996Z</time></trkpt><trkpt lat="39.0774196" lon="16.2238976"><ele>485.0</ele><time>2026-04-04T09:25:02.014Z</time></trkpt><trkpt lat="39.0774357" lon="16.2240088"><ele>485.0</ele><time>2026-04-04T09:25:03.987Z</time></trkpt><trkpt lat="39.0774924" lon="16.224063"><ele>484.99999999999994</ele><time>2026-04-04T09:25:06Z</time></trkpt><trkpt lat="39.0775409" lon="16.2239727"><ele>485.0</ele><time>2026-04-04T09:25:09Z</time></trkpt><trkpt lat="39.0775419" lon="16.2238647"><ele>477.99999999999994</ele><time>2026-04-04T09:25:12Z</time></trkpt><trkpt lat="39.0775482" lon="16.2237481"><ele>471.0</ele><time>2026-04-04T09:25:15Z</time></trkpt><trkpt lat="39.0775652" lon="16.2236682"><ele>464.0</ele><time>2026-04-04T09:25:17Z</time></trkpt><trkpt lat="39.0775991" lon="16.223556"><ele>457.0</ele><time>2026-04-04T09:25:21Z</time></trkpt><trkpt lat="39.0775887" lon="16.2236497"><ele>449.99999999999994</ele><time>2026-04-04T09:29:24Z</time></trkpt><trkpt lat="39.0775845" lon="16.2237419"><ele>443.0</ele><time>2026-04-04T09:29:28.004Z</time></trkpt><trkpt lat="39.077568" lon="16.2238498"><ele>443.0</ele><time>2026-04-04T09:29:32.008Z</time></trkpt><trkpt lat="39.0775645" lon="16.2239534"><ele>443.0</ele><time>2026-04-04T09:29:36.012Z</time></trkpt><trkpt lat="39.0775566" lon="16.2240544"><ele>443.0</ele><time>2026-04-04T09:29:40.021Z</time></trkpt><trkpt lat="39.0774961" lon="16.2240862"><ele>443.0</ele><time>2026-04-04T09:29:44.02Z</time></trkpt><trkpt lat="39.0774713" lon="16.2240051"><ele>443.0</ele><time>2026-04-04T09:29:47.024Z</time></trkpt><trkpt lat="39.077449" lon="16.2238995"><ele>443.0</ele><time>2026-04-04T09:29:50Z</time></trkpt><trkpt lat="39.0774383" lon="16.2238128"><ele>443.0</ele><time>2026-04-04T09:29:53Z</time></trkpt><trkpt lat="39.0774158" lon="16.2237142"><ele>443.0</ele><time>2026-04-04T09:29:57Z</time></trkpt><trkpt lat="39.077398" lon="16.2236245"><ele>443.0</ele><time>2026-04-04T09:30:01Z</time></trkpt><trkpt lat="39.0774029" lon="16.2235423"><ele>443.0</ele><time>2026-04-04T09:30:13Z</time></trkpt><trkpt lat="39.0774264" lon="16.2234557"><ele>443.0</ele><time>2026-04-04T09:30:31Z</time></trkpt><trkpt lat="39.0774452" lon="16.2233745"><ele>443.0</ele><time>2026-04-04T09:30:35Z</time></trkpt><trkpt lat="39.0774288" lon="16.2232943"><ele>443.0</ele><time>2026-04-04T09:30:38Z</time></trkpt><trkpt lat="39.0774083" lon="16.2232111"><ele>443.0</ele><time>2026-04-04T09:30:41Z</time></trkpt><trkpt lat="39.0773801" lon="16.2231382"><ele>447.14285714285717</ele><time>2026-04-04T09:30:44Z</time></trkpt><trkpt lat="39.0773369" lon="16.2230489"><ele>451.28571428571433</ele><time>2026-04-04T09:30:48Z</time></trkpt><trkpt lat="39.0772999" lon="16.22297"><ele>455.42857142857144</ele><time>2026-04-04T09:30:52Z</time></trkpt><trkpt lat="39.0772667" lon="16.2228941"><ele>459.57142857142856</ele><time>2026-04-04T09:30:56Z</time></trkpt><trkpt lat="39.0772357" lon="16.2228124"><ele>463.7142857142857</ele><time>2026-04-04T09:30:59.999Z</time></trkpt><trkpt lat="39.077199" lon="16.2227296"><ele>467.85714285714283</ele><time>2026-04-04T09:31:05Z</time></trkpt><trkpt lat="39.0771708" lon="16.2226452"><ele>472.0</ele><time>2026-04-04T09:31:10Z</time></trkpt><trkpt lat="39.0771475" lon="16.222553"><ele>472.0</ele><time>2026-04-04T09:31:16Z</time></trkpt><trkpt lat="39.0771244" lon="16.2224658"><ele>472.00000000000006</ele><time>2026-04-04T09:31:21Z</time></trkpt><trkpt lat="39.0771051" lon="16.2223822"><ele>472.00000000000006</ele><time>2026-04-04T09:31:26Z</time></trkpt><trkpt lat="39.0770794" lon="16.2222995"><ele>472.0</ele><time>2026-04-04T09:31:30.999Z</time></trkpt><trkpt lat="39.0770322" lon="16.2222214"><ele>472.0</ele><time>2026-04-04T09:31:36Z</time></trkpt><trkpt lat="39.0766803" lon="16.223705"><ele>473.85714285714283</ele><time>2026-04-04T09:36:46Z</time></trkpt><trkpt lat="39.0766521" lon="16.223785"><ele>475.7142857142858</ele><time>2026-04-04T09:37:03Z</time></trkpt><trkpt lat="39.0766254" lon="16.2238612"><ele>477.5714285714286</ele><time>2026-04-04T09:37:08Z</time></trkpt><trkpt lat="39.0765959" lon="16.2239437"><ele>479.42857142857144</ele><time>2026-04-04T09:37:13Z</time></trkpt><trkpt lat="39.0765607" lon="16.2240128"><ele>481.28571428571433</ele><time>2026-04-04T09:37:17Z</time></trkpt><trkpt lat="39.076523" lon="16.2240799"><ele>483.1428571428572</ele><time>2026-04-04T09:37:21Z</time></trkpt><trkpt lat="39.0764674" lon="16.2241324"><ele>485.00000000000006</ele><time>2026-04-04T09:37:25Z</time></trkpt><trkpt lat="39.076419" lon="16.2241902"><ele>488.57142857142867</ele><time>2026-04-04T09:37:29Z</time></trkpt><trkpt lat="39.0763579" lon="16.2242209"><ele>492.14285714285717</ele><time>2026-04-04T09:37:37Z</time></trkpt><trkpt lat="39.0762897" lon="16.2242562"><ele>495.7142857142858</ele><time>2026-04-04T09:37:42Z</time></trkpt><trkpt lat="39.0762205" lon="16.2242645"><ele>499.28571428571433</ele><time>2026-04-04T09:37:47Z</time></trkpt><trkpt lat="39.0761549" lon="16.2242931"><ele>502.8571428571429</ele><time>2026-04-04T09:37:53Z</time></trkpt><trkpt lat="39.0760705" lon="16.2242897"><ele>506.42857142857144</ele><time>2026-04-04T09:37:59Z</time></trkpt><trkpt lat="39.0760034" lon="16.2242897"><ele>510.0</ele><time>2026-04-04T09:38:05Z</time></trkpt><trkpt lat="39.0759267" lon="16.2242974"><ele>510.0</ele><time>2026-04-04T09:38:11Z</time></trkpt><trkpt lat="39.075861" lon="16.2242992"><ele>510.00000000000006</ele><time>2026-04-04T09:38:16Z</time></trkpt><trkpt lat="39.075799" lon="16.2243216"><ele>510.0</ele><time>2026-04-04T09:38:21Z</time></trkpt><trkpt lat="39.075728" lon="16.2243258"><ele>510.0</ele><time>2026-04-04T09:38:27Z</time></trkpt><trkpt lat="39.0756535" lon="16.2243383"><ele>510.00000000000006</ele><time>2026-04-04T09:38:33Z</time></trkpt><trkpt lat="39.0755907" lon="16.224362"><ele>510.0</ele><time>2026-04-04T09:38:39Z</time></trkpt><trkpt lat="39.0755193" lon="16.2243971"><ele>510.0</ele><time>2026-04-04T09:38:45Z</time></trkpt><trkpt lat="39.0754625" lon="16.2244412"><ele>511.7142857142857</ele><time>2026-04-04T09:38:50Z</time></trkpt><trkpt lat="39.0753993" lon="16.2244715"><ele>513.4285714285714</ele><time>2026-04-04T09:38:54.999Z</time></trkpt><trkpt lat="39.0753307" lon="16.2245007"><ele>515.1428571428571</ele><time>2026-04-04T09:38:59Z</time></trkpt><trkpt lat="39.0752848" lon="16.2245628"><ele>516.8571428571429</ele><time>2026-04-04T09:39:04Z</time></trkpt><trkpt lat="39.0752223" lon="16.224595"><ele>518.5714285714286</ele><time>2026-04-04T09:39:08Z</time></trkpt><trkpt lat="39.0751587" lon="16.2246449"><ele>520.2857142857143</ele><time>2026-04-04T09:39:12Z</time></trkpt><trkpt lat="39.0750974" lon="16.2246921"><ele>522.0</ele><time>2026-04-04T09:39:17Z</time></trkpt><trkpt lat="39.0750289" lon="16.2246984"><ele>522.0</ele><time>2026-04-04T09:42:12Z</time></trkpt><trkpt lat="39.0750041" lon="16.2246156"><ele>522.0</ele><time>2026-04-04T09:42:17Z</time></trkpt><trkpt lat="39.0749824" lon="16.2245296"><ele>522.0</ele><time>2026-04-04T09:42:22Z</time></trkpt><trkpt lat="39.0749717" lon="16.2244291"><ele>522.0</ele><time>2026-04-04T09:42:27Z</time></trkpt><trkpt lat="39.0749351" lon="16.2243235"><ele>522.0</ele><time>2026-04-04T09:42:29Z</time></trkpt><trkpt lat="39.0749306" lon="16.2242268"><ele>522.0</ele><time>2026-04-04T09:42:32.999Z</time></trkpt><trkpt lat="39.0749148" lon="16.2241408"><ele>524.8571428571429</ele><time>2026-04-04T09:42:37Z</time></trkpt><trkpt lat="39.0749016" lon="16.224055"><ele>527.7142857142857</ele><time>2026-04-04T09:42:41Z</time></trkpt><trkpt lat="39.0748968" lon="16.2239657"><ele>530.5714285714286</ele><time>2026-04-04T09:42:45Z</time></trkpt><trkpt lat="39.0748431" lon="16.2239038"><ele>533.4285714285714</ele><time>2026-04-04T09:45:19Z</time></trkpt><trkpt lat="39.0748259" lon="16.2238189"><ele>536.2857142857143</ele><time>2026-04-04T09:45:23Z</time></trkpt><trkpt lat="39.0748202" lon="16.2237184"><ele>539.1428571428571</ele><time>2026-04-04T09:45:28Z</time></trkpt><trkpt lat="39.0748093" lon="16.223627"><ele>542.0</ele><time>2026-04-04T09:45:33Z</time></trkpt><trkpt lat="39.0747996" lon="16.2235379"><ele>542.4285714285714</ele><time>2026-04-04T09:45:38Z</time></trkpt><trkpt lat="39.0747794" lon="16.2234506"><ele>542.8571428571429</ele><time>2026-04-04T09:45:43Z</time></trkpt><trkpt lat="39.0747641" lon="16.2233713"><ele>543.2857142857143</ele><time>2026-04-04T09:45:48Z</time></trkpt><trkpt lat="39.0747442" lon="16.2232922"><ele>543.7142857142858</ele><time>2026-04-04T09:45:53Z</time></trkpt><trkpt lat="39.0747184" lon="16.223218"><ele>544.1428571428572</ele><time>2026-04-04T09:46:00Z</time></trkpt><trkpt lat="39.0746848" lon="16.2231381"><ele>544.5714285714286</ele><time>2026-04-04T09:46:09Z</time></trkpt><trkpt lat="39.0746181" lon="16.2231151"><ele>545.0</ele><time>2026-04-04T09:49:24Z</time></trkpt><trkpt lat="39.0745549" lon="16.2231074"><ele>545.0</ele><time>2026-04-04T09:49:29Z</time></trkpt><trkpt lat="39.0744846" lon="16.2231186"><ele>545.0</ele><time>2026-04-04T09:49:34Z</time></trkpt><trkpt lat="39.0744122" lon="16.2231275"><ele>545.0</ele><time>2026-04-04T09:49:42Z</time></trkpt><trkpt lat="39.0743365" lon="16.2231497"><ele>545.0</ele><time>2026-04-04T09:49:47Z</time></trkpt><trkpt lat="39.0742591" lon="16.2231655"><ele>545.0</ele><time>2026-04-04T09:49:51.999Z</time></trkpt><trkpt lat="39.0741878" lon="16.2231646"><ele>545.0</ele><time>2026-04-04T09:49:56Z</time></trkpt><trkpt lat="39.0741278" lon="16.2231399"><ele>545.0</ele><time>2026-04-04T09:50:00Z</time></trkpt><trkpt lat="39.0740558" lon="16.2231192"><ele>547.4285714285714</ele><time>2026-04-04T09:50:05Z</time></trkpt><trkpt lat="39.0739986" lon="16.2230685"><ele>549.8571428571429</ele><time>2026-04-04T09:50:10Z</time></trkpt><trkpt lat="39.0739457" lon="16.2230034"><ele>552.2857142857143</ele><time>2026-04-04T09:50:14Z</time></trkpt><trkpt lat="39.0738972" lon="16.2229422"><ele>554.7142857142858</ele><time>2026-04-04T09:50:19Z</time></trkpt><trkpt lat="39.0738426" lon="16.2228936"><ele>557.1428571428571</ele><time>2026-04-04T09:50:22.999Z</time></trkpt><trkpt lat="39.0737852" lon="16.2228367"><ele>559.5714285714287</ele><time>2026-04-04T09:50:28Z</time></trkpt><trkpt lat="39.0738455" lon="16.2228865"><ele>562.0</ele><time>2026-04-04T09:50:43Z</time></trkpt><trkpt lat="39.0738935" lon="16.2229405"><ele>562.0</ele><time>2026-04-04T09:50:46Z</time></trkpt><trkpt lat="39.0739527" lon="16.2230097"><ele>562.0</ele><time>2026-04-04T09:50:49Z</time></trkpt><trkpt lat="39.0740442" lon="16.2231097"><ele>562.0</ele><time>2026-04-04T09:50:53Z</time></trkpt><trkpt lat="39.0741054" lon="16.2231494"><ele>562.0</ele><time>2026-04-04T09:50:55Z</time></trkpt><trkpt lat="39.0741758" lon="16.2231692"><ele>562.0</ele><time>2026-04-04T09:50:56.999Z</time></trkpt><trkpt lat="39.0742471" lon="16.2231737"><ele>562.0</ele><time>2026-04-04T09:50:59Z</time></trkpt><trkpt lat="39.0743183" lon="16.2231691"><ele>559.5714285714287</ele><time>2026-04-04T09:51:01Z</time></trkpt><trkpt lat="39.0744077" lon="16.2231437"><ele>557.1428571428571</ele><time>2026-04-04T09:51:04Z</time></trkpt><trkpt lat="39.0744843" lon="16.2231313"><ele>554.7142857142858</ele><time>2026-04-04T09:51:07Z</time></trkpt><trkpt lat="39.0745497" lon="16.2231246"><ele>552.2857142857143</ele><time>2026-04-04T09:51:10Z</time></trkpt><trkpt lat="39.074614" lon="16.2231283"><ele>549.8571428571429</ele><time>2026-04-04T09:51:13Z</time></trkpt><trkpt lat="39.0746896" lon="16.22316"><ele>547.4285714285714</ele><time>2026-04-04T09:51:17Z</time></trkpt><trkpt lat="39.074726" lon="16.2232291"><ele>545.0</ele><time>2026-04-04T09:51:20Z</time></trkpt><trkpt lat="39.0747531" lon="16.2233072"><ele>545.0</ele><time>2026-04-04T09:51:23Z</time></trkpt><trkpt lat="39.0747823" lon="16.2234033"><ele>545.0</ele><time>2026-04-04T09:51:26Z</time></trkpt><trkpt lat="39.0748082" lon="16.2235093"><ele>545.0</ele><time>2026-04-04T09:51:29Z</time></trkpt><trkpt lat="39.0748272" lon="16.2235891"><ele>545.0</ele><time>2026-04-04T09:51:31Z</time></trkpt><trkpt lat="39.0748438" lon="16.2236729"><ele>545.0</ele><time>2026-04-04T09:51:33Z</time></trkpt><trkpt lat="39.0748582" lon="16.2237562"><ele>545.0</ele><time>2026-04-04T09:51:35Z</time></trkpt><trkpt lat="39.074871" lon="16.223836"><ele>545.0</ele><time>2026-04-04T09:51:37Z</time></trkpt><trkpt lat="39.0748974" lon="16.2239556"><ele>544.5</ele><time>2026-04-04T09:51:40Z</time></trkpt><trkpt lat="39.0749183" lon="16.224047"><ele>544.0</ele><time>2026-04-04T09:51:42Z</time></trkpt><trkpt lat="39.0749408" lon="16.2241464"><ele>543.5</ele><time>2026-04-04T09:51:44Z</time></trkpt><trkpt lat="39.0749579" lon="16.2242544"><ele>543.0</ele><time>2026-04-04T09:51:46Z</time></trkpt><trkpt lat="39.0749651" lon="16.224379"><ele>542.5</ele><time>2026-04-04T09:51:48Z</time></trkpt><trkpt lat="39.0749703" lon="16.2245006"><ele>542.0</ele><time>2026-04-04T09:51:50Z</time></trkpt><trkpt lat="39.0749861" lon="16.2246163"><ele>538.6666666666666</ele><time>2026-04-04T09:51:52Z</time></trkpt><trkpt lat="39.0750218" lon="16.2246991"><ele>535.3333333333333</ele><time>2026-04-04T09:51:54Z</time></trkpt><trkpt lat="39.0750937" lon="16.2247013"><ele>532.0</ele><time>2026-04-04T09:51:56Z</time></trkpt><trkpt lat="39.0751582" lon="16.2246584"><ele>528.6666666666666</ele><time>2026-04-04T09:51:58Z</time></trkpt><trkpt lat="39.0752354" lon="16.2245913"><ele>525.3333333333334</ele><time>2026-04-04T09:52:00Z</time></trkpt><trkpt lat="39.0753247" lon="16.2245175"><ele>522.0</ele><time>2026-04-04T09:52:02Z</time></trkpt><trkpt lat="39.0754231" lon="16.2244631"><ele>522.0</ele><time>2026-04-04T09:52:04Z</time></trkpt><trkpt lat="39.0755268" lon="16.2244136"><ele>522.0</ele><time>2026-04-04T09:52:06Z</time></trkpt><trkpt lat="39.0756331" lon="16.2243756"><ele>522.0</ele><time>2026-04-04T09:52:08Z</time></trkpt><trkpt lat="39.0757364" lon="16.2243507"><ele>522.0</ele><time>2026-04-04T09:52:10Z</time></trkpt><trkpt lat="39.0758422" lon="16.2243253"><ele>522.0</ele><time>2026-04-04T09:52:12Z</time></trkpt><trkpt lat="39.0759506" lon="16.2243124"><ele>519.6</ele><time>2026-04-04T09:52:14Z</time></trkpt><trkpt lat="39.0760603" lon="16.2242939"><ele>517.2</ele><time>2026-04-04T09:52:16Z</time></trkpt><trkpt lat="39.0761641" lon="16.224283"><ele>514.8</ele><time>2026-04-04T09:52:18Z</time></trkpt><trkpt lat="39.0762585" lon="16.2242667"><ele>512.4</ele><time>2026-04-04T09:52:20Z</time></trkpt><trkpt lat="39.0763732" lon="16.2242316"><ele>510.0</ele><time>2026-04-04T09:52:21.999Z</time></trkpt><trkpt lat="39.0764696" lon="16.2241497"><ele>510.0</ele><time>2026-04-04T09:52:24Z</time></trkpt><trkpt lat="39.0765532" lon="16.2240406"><ele>510.0</ele><time>2026-04-04T09:52:26Z</time></trkpt><trkpt lat="39.0766128" lon="16.223906"><ele>510.0</ele><time>2026-04-04T09:52:28Z</time></trkpt><trkpt lat="39.0766585" lon="16.2237697"><ele>510.0</ele><time>2026-04-04T09:52:30Z</time></trkpt><trkpt lat="39.0766793" lon="16.22369"><ele>510.0</ele><time>2026-04-04T09:52:31Z</time></trkpt><trkpt lat="39.0767052" lon="16.2235458"><ele>505.0</ele><time>2026-04-04T09:52:33Z</time></trkpt><trkpt lat="39.0767179" lon="16.2233972"><ele>500.0</ele><time>2026-04-04T09:52:35Z</time></trkpt><trkpt lat="39.0767519" lon="16.2232455"><ele>495.0</ele><time>2026-04-04T09:52:37Z</time></trkpt><trkpt lat="39.0767538" lon="16.2231449"><ele>490.0</ele><time>2026-04-04T09:52:38Z</time></trkpt><trkpt lat="39.0767622" lon="16.2230431"><ele>485.0</ele><time>2026-04-04T09:52:39Z</time></trkpt><trkpt lat="39.076764" lon="16.2229494"><ele>482.8333333333333</ele><time>2026-04-04T09:52:40Z</time></trkpt><trkpt lat="39.0767609" lon="16.2228552"><ele>480.66666666666663</ele><time>2026-04-04T09:52:41Z</time></trkpt><trkpt lat="39.0767716" lon="16.2227574"><ele>478.5</ele><time>2026-04-04T09:52:42Z</time></trkpt><trkpt lat="39.0767792" lon="16.2226674"><ele>476.33333333333337</ele><time>2026-04-04T09:52:43Z</time></trkpt><trkpt lat="39.0767896" lon="16.2225863"><ele>474.1666666666667</ele><time>2026-04-04T09:52:44Z</time></trkpt><trkpt lat="39.0767993" lon="16.2225025"><ele>472.0</ele><time>2026-04-04T09:52:45Z</time></trkpt><trkpt lat="39.076782" lon="16.2223504"><ele>468.00000000000006</ele><time>2026-04-04T09:52:47Z</time></trkpt><trkpt lat="39.0767249" lon="16.2223126"><ele>464.0</ele><time>2026-04-04T09:52:48Z</time></trkpt><trkpt lat="39.0766975" lon="16.22222"><ele>460.0</ele><time>2026-04-04T09:52:50Z</time></trkpt><trkpt lat="39.0767648" lon="16.2221756"><ele>456.0</ele><time>2026-04-04T09:52:52Z</time></trkpt><trkpt lat="39.0768735" lon="16.2221601"><ele>452.00000000000006</ele><time>2026-04-04T09:52:54Z</time></trkpt><trkpt lat="39.0769776" lon="16.2221551"><ele>448.0</ele><time>2026-04-04T09:52:56Z</time></trkpt><trkpt lat="39.0770668" lon="16.2221756"><ele>448.0</ele><time>2026-04-04T09:52:58Z</time></trkpt><trkpt lat="39.0771199" lon="16.2222618"><ele>447.99999999999994</ele><time>2026-04-04T09:53:00Z</time></trkpt><trkpt lat="39.0771516" lon="16.2224008"><ele>447.99999999999994</ele><time>2026-04-04T09:53:02Z</time></trkpt><trkpt lat="39.077188" lon="16.222537"><ele>448.0</ele><time>2026-04-04T09:53:04Z</time></trkpt><trkpt lat="39.0772194" lon="16.2226853"><ele>448.0</ele><time>2026-04-04T09:53:06Z</time></trkpt><trkpt lat="39.0772313" lon="16.2227668"><ele>454.0</ele><time>2026-04-04T09:53:07Z</time></trkpt><trkpt lat="39.0772838" lon="16.2229093"><ele>460.0</ele><time>2026-04-04T09:53:09Z</time></trkpt><trkpt lat="39.0773455" lon="16.2230429"><ele>466.0</ele><time>2026-04-04T09:53:11Z</time></trkpt><trkpt lat="39.0774021" lon="16.2231739"><ele>472.0</ele><time>2026-04-04T09:53:13Z</time></trkpt><trkpt lat="39.0774295" lon="16.2233274"><ele>474.6</ele><time>2026-04-04T09:53:15Z</time></trkpt><trkpt lat="39.0774243" lon="16.2234719"><ele>477.20000000000005</ele><time>2026-04-04T09:53:17Z</time></trkpt><trkpt lat="39.0774092" lon="16.2236048"><ele>479.8</ele><time>2026-04-04T09:53:19Z</time></trkpt><trkpt lat="39.0774283" lon="16.2237268"><ele>482.4</ele><time>2026-04-04T09:53:21Z</time></trkpt><trkpt lat="39.0774334" lon="16.2238544"><ele>485.0</ele><time>2026-04-04T09:53:23Z</time></trkpt><trkpt lat="39.0774639" lon="16.2240428"><ele>440.0</ele><time>2026-04-04T09:53:26Z</time></trkpt><trkpt lat="39.0775337" lon="16.2240279"><ele>440.0</ele><time>2026-04-04T09:53:29Z</time></trkpt><trkpt lat="39.0775468" lon="16.2239331"><ele>443.0</ele><time>2026-04-04T09:53:31Z</time></trkpt><trkpt lat="39.0775538" lon="16.2238413"><ele>443.0</ele><time>2026-04-04T09:53:33Z</time></trkpt><trkpt lat="39.0775654" lon="16.2237357"><ele>443.0</ele><time>2026-04-04T09:53:35Z</time></trkpt><trkpt lat="39.0775811" lon="16.2236452"><ele>443.0</ele><time>2026-04-04T09:53:37Z</time></trkpt></trkseg></trk></gpx>